Chelan, WA

2:24 AM PST en Enero 26, 2015 (GMT -0800)
The Highlands | Change Station
CLOSE
Current Station
Estación meteorológica personal
Location: Chelan, WA
Altura: 1610 ft
Estaciones meteorológicas cercanas

Alt 1610 ft 47.86 °N, 120.04 °W | Updated 12 minutes ago

Nublado
Nublado
33.4 ° F
Sensación térmica 33 ° F
N
0.0
Viento Variable Viento desde NO
Gusts 2.0 mph

Hoy
Alta -- | Baja -- ° F
--% Posibilidad de precipitaciones
Ayer
Alta -- | Baja -- ° F
Precip. -- pul
7:34 AM 4:51 PM
Creciente, 41% visible
Presión 30.19 pul
Visibilidad 8.0 Millas
Nubes Nublado 200 ft
Vientos helados 33 ° F
Punto de rocío 33 ° F
Humedad 97%
Precipitaciones 0.00 pul
Espesor de la nieve No disponible.
UV 0 de una escala de 12
Polen 4.00 de una escala de 12
Calidad del aire No disponible.
Flu Activity No disponible.
METAR KEAT 260955Z AUTO 31005KT 8SM OVC002 02/01 A3016 RMK AO2 SLP221 T00170006 $

More Conditions Fewer Conditions

Presión 30.19 pul
Visibilidad 8.0 Millas
Nubes Nublado 200 ft
Vientos helados 33 ° F
Punto de rocío 33 ° F
Humedad 97%
Precipitaciones 0.00 pul
Espesor de la nieve No disponible.
UV 0 de una escala de 12
Polen 4.00 de una escala de 12
Calidad del aire No disponible.
Flu Activity No disponible.
METAR KEAT 260955Z AUTO 31005KT 8SM OVC002 02/01 A3016 RMK AO2 SLP221 T00170006 $

More Conditions Fewer Conditions

10-Day Weather Forecast

Almanac

Astronomía

Jan. 26, 2015 Salida Puesta
Hora real
Crepúsculo civil
Crepúsculo náutico
Crepúsculo astronómico
Luna
Horas de luz
Horas de luz
Tomorrow will be .
, % of the Moon is Illuminated

Extremos de hoy

Máximos del estado Bajos del estado

Community

WunderPhotos

Upload Photos

1,790,171 ¡fotos cargadas!

WunderBlogs® & News

Nearby

Calidad del aire

  Calidad del aire Índice AQ Contaminante
Not available.

Grosos de nieve

Estación Profundido Altura

Actividad de terremotos

Ciudad Distance Mag. Tiempo y dato
Magnitud mínima muestra es 2,5.

Temperaturas de aguas costeras

Lugar Temperatura

Estaciones meteorológicas cercanas